<?xml version="1.0" encoding="UTF-8" standalone="no" ?>
<gpx xmlns="http://www.topografix.com/GPX/1/1" xmlns:xsi="http://www.w3.org/2001/XMLSchema-instance" xsi:schemaLocation="http://www.topografix.com/GPX/1/1 http://www.topografix.com/GPX/1/1/gpx.xsd" version="1.1" creator="VisuGPX - https://www.visugpx.com">
  <metadata>
    <name>secteur Saverne - Dabo - Petite Pierre</name>
  </metadata>
  <trk>
    <name><![CDATA[secteur Saverne - Dabo - Petite Pierre_31]]></name>
    <trkseg>
      <trkpt lat="48.73795" lon="7.347">
        <ele>191.6</ele>
        <time>2020-08-14T14:08:44Z</time>
      </trkpt>
      <trkpt lat="48.73795" lon="7.347">
        <ele>191.6</ele>
        <time>2020-08-14T14:08:44Z</time>
      </trkpt>
      <trkpt lat="48.73795" lon="7.347">
        <ele>191.6</ele>
        <time>2020-08-14T14:08:44Z</time>
      </trkpt>
      <trkpt lat="48.73795" lon="7.347">
        <ele>191.6</ele>
        <time>2020-08-14T14:08:44Z</time>
      </trkpt>
      <trkpt lat="48.73795" lon="7.347">
        <ele>191.6</ele>
        <time>2020-08-14T14:08:44Z</time>
      </trkpt>
      <trkpt lat="48.73795" lon="7.347">
        <ele>191.6</ele>
        <time>2020-08-14T14:08:44Z</time>
      </trkpt>
      <trkpt lat="48.73795" lon="7.34693">
        <ele>186.8</ele>
        <time>2020-08-14T14:08:54Z</time>
      </trkpt>
      <trkpt lat="48.738" lon="7.34693">
        <ele>189.1</ele>
        <time>2020-08-14T14:09:12Z</time>
      </trkpt>
      <trkpt lat="48.73805" lon="7.34695">
        <ele>189.3</ele>
        <time>2020-08-14T14:09:14Z</time>
      </trkpt>
      <trkpt lat="48.7381" lon="7.34697">
        <ele>191.7</ele>
        <time>2020-08-14T14:09:16Z</time>
      </trkpt>
      <trkpt lat="48.73817" lon="7.34696">
        <ele>192.4</ele>
        <time>2020-08-14T14:09:18Z</time>
      </trkpt>
      <trkpt lat="48.73823" lon="7.34687">
        <ele>192.7</ele>
        <time>2020-08-14T14:09:20Z</time>
      </trkpt>
      <trkpt lat="48.73829" lon="7.34675">
        <ele>192.3</ele>
        <time>2020-08-14T14:09:22Z</time>
      </trkpt>
      <trkpt lat="48.73834" lon="7.34663">
        <ele>192.2</ele>
        <time>2020-08-14T14:09:24Z</time>
      </trkpt>
      <trkpt lat="48.73839" lon="7.34651">
        <ele>192.1</ele>
        <time>2020-08-14T14:09:26Z</time>
      </trkpt>
      <trkpt lat="48.73842" lon="7.34641">
        <ele>192.5</ele>
        <time>2020-08-14T14:09:28Z</time>
      </trkpt>
      <trkpt lat="48.73844" lon="7.34634">
        <ele>192.6</ele>
        <time>2020-08-14T14:09:30Z</time>
      </trkpt>
      <trkpt lat="48.73847" lon="7.34628">
        <ele>191.5</ele>
        <time>2020-08-14T14:09:48Z</time>
      </trkpt>
      <trkpt lat="48.7385" lon="7.34621">
        <ele>192.2</ele>
        <time>2020-08-14T14:09:52Z</time>
      </trkpt>
      <trkpt lat="48.73853" lon="7.34614">
        <ele>192.6</ele>
        <time>2020-08-14T14:09:55Z</time>
      </trkpt>
      <trkpt lat="48.73852" lon="7.34605">
        <ele>192</ele>
        <time>2020-08-14T14:09:58Z</time>
      </trkpt>
    </trkseg>
  </trk>
</gpx>